Scott AFB/Midamerica Airport
KBLV : now visible

Airfield :











YOU CAN JOIN US ON...

 
LOGIN :

Register | Disclaimer

   EN    FR    IT 

 









Legend :    VFR   Marginal VFR   IFR   Intensive IFR   Very Intensive IFR
Visi :
Ceiling :
>= 8 km
>= 3000ft
5 to 8 km
1000 to 3000 ft
1500m to 5 km
500 to 1000 ft
800 to 1500m
200 to 500 ft
< 800m
< 200 ft
Symbols :   Thunderstorms  Fog  Heavy snow  Heavy precipitations  Wind > 20 kt






- Airport Elevation : 459 ft


KBLV - Scott AFB/Midamerica

METAR N/A
TAF TAF KBLV
Valid from the 20 at 16:00 until the 21 at 22:00 UTC


201600Z 2016/2122 19006KT 9999 SCT050 QNH2972INS
BECMG 2017/2018 21012G20KT 9999 SCT040 BKN060 QNH2965INS
BECMG 2023/2024 21010KT 9999 SCT200 501502 QNH2962INS
BECMG 2108/2109 23006KT 9000 -SHRA SCT020 BKN030 QNH2966INS
BECMG 2110/2111 26010KT 9999 NSW BKN020 OVC030 QNH2971INS
BECMG 2115/2116 33015G25KT 9000 -SHRA BKN015 OVC020 QNH2982INS TX33/2020Z TN23/2110Z
KZKC FIR / North America



MET'MAP, your aeronautical weather chart ! - Copyright ORBIFLY December 2007 - Disclaimer

ORBIFLY MET'MAP TEAM :

Programming & Development : Alexandra Zaïnal
Concept & original design : Baudouin d'Aumeries
Assistance for programming : Marc-Olivier Méhu
Technical & hardware support : Manuel Goepfert

Contact : metmap@orbifly.com




SOURCES & CREDITS :

   NOAA       Earth
Advisory